sensor_id;sensor_type;location;lat;lon;timestamp;pressure;altitude;pressure_sealevel;temperature;humidity
48156;BME280;35568;48.104;11.782;2022-12-29T00:01:36;95230.46;;;4.46;42.96
48156;BME280;35568;48.104;11.782;2022-12-29T00:04:04;95228.66;;;3.91;43.02
48156;BME280;35568;48.104;11.782;2022-12-29T00:06:31;95225.44;;;4.40;42.70
48156;BME280;35568;48.104;11.782;2022-12-29T00:08:58;95221.68;;;4.46;42.70
48156;BME280;35568;48.104;11.782;2022-12-29T00:11:27;95223.85;;;3.91;42.61
48156;BME280;35568;48.104;11.782;2022-12-29T00:13:54;95219.04;;;4.32;43.00
48156;BME280;35568;48.104;11.782;2022-12-29T00:16:21;95214.92;;;4.17;42.73
48156;BME280;35568;48.104;11.782;2022-12-29T00:18:49;95215.59;;;3.98;42.88
48156;BME280;35568;48.104;11.782;2022-12-29T00:21:17;95216.83;;;4.03;42.55
48156;BME280;35568;48.104;11.782;2022-12-29T00:23:45;95208.16;;;4.01;42.55
48156;BME280;35568;48.104;11.782;2022-12-29T00:26:14;95208.89;;;4.27;42.85
48156;BME280;35568;48.104;11.782;2022-12-29T00:28:41;95210.77;;;4.49;42.49
48156;BME280;35568;48.104;11.782;2022-12-29T00:31:11;95206.34;;;4.24;42.19
48156;BME280;35568;48.104;11.782;2022-12-29T00:33:38;95197.72;;;4.57;42.38
48156;BME280;35568;48.104;11.782;2022-12-29T00:36:08;95199.13;;;4.62;41.99
48156;BME280;35568;48.104;11.782;2022-12-29T00:38:38;95197.03;;;4.68;41.93
48156;BME280;35568;48.104;11.782;2022-12-29T00:41:07;95194.14;;;4.88;41.45
48156;BME280;35568;48.104;11.782;2022-12-29T00:43:34;95196.12;;;4.28;41.89
48156;BME280;35568;48.104;11.782;2022-12-29T00:46:01;95195.19;;;4.59;41.46
48156;BME280;35568;48.104;11.782;2022-12-29T00:48:28;95193.56;;;4.53;42.06
48156;BME280;35568;48.104;11.782;2022-12-29T00:50:56;95194.94;;;4.64;41.95
48156;BME280;35568;48.104;11.782;2022-12-29T00:53:22;95192.34;;;4.23;41.93
48156;BME280;35568;48.104;11.782;2022-12-29T00:55:49;95187.78;;;4.23;42.21
48156;BME280;35568;48.104;11.782;2022-12-29T00:58:16;95187.38;;;4.14;42.08
48156;BME280;35568;48.104;11.782;2022-12-29T01:00:43;95194.11;;;4.70;42.05
48156;BME280;35568;48.104;11.782;2022-12-29T01:03:10;95197.64;;;4.82;41.47
48156;BME280;35568;48.104;11.782;2022-12-29T01:05:37;95197.62;;;4.44;41.82
48156;BME280;35568;48.104;11.782;2022-12-29T01:08:04;95196.48;;;4.89;41.18
48156;BME280;35568;48.104;11.782;2022-12-29T01:10:31;95197.84;;;4.73;41.07
48156;BME280;35568;48.104;11.782;2022-12-29T01:12:58;95197.30;;;4.62;40.93
48156;BME280;35568;48.104;11.782;2022-12-29T01:15:25;95198.49;;;4.27;41.38
48156;BME280;35568;48.104;11.782;2022-12-29T01:17:52;95199.43;;;4.46;41.44
48156;BME280;35568;48.104;11.782;2022-12-29T01:20:19;95196.54;;;4.67;41.11
48156;BME280;35568;48.104;11.782;2022-12-29T01:22:46;95198.65;;;4.74;41.36
48156;BME280;35568;48.104;11.782;2022-12-29T01:25:12;95199.79;;;4.64;41.56
48156;BME280;35568;48.104;11.782;2022-12-29T01:27:39;95200.04;;;4.10;41.35
48156;BME280;35568;48.104;11.782;2022-12-29T01:30:07;95201.60;;;4.02;41.39
48156;BME280;35568;48.104;11.782;2022-12-29T01:32:34;95206.08;;;4.44;41.54
48156;BME280;35568;48.104;11.782;2022-12-29T01:35:01;95205.94;;;4.00;41.55
48156;BME280;35568;48.104;11.782;2022-12-29T01:37:28;95205.92;;;4.57;41.26
48156;BME280;35568;48.104;11.782;2022-12-29T01:39:55;95208.36;;;4.66;41.42
48156;BME280;35568;48.104;11.782;2022-12-29T01:42:24;95206.22;;;4.40;41.36
48156;BME280;35568;48.104;11.782;2022-12-29T01:44:54;95205.98;;;4.47;41.16
48156;BME280;35568;48.104;11.782;2022-12-29T01:47:29;95204.08;;;4.28;41.02
48156;BME280;35568;48.104;11.782;2022-12-29T01:49:58;95204.21;;;4.42;41.04
48156;BME280;35568;48.104;11.782;2022-12-29T01:52:31;95204.90;;;3.92;41.17
48156;BME280;35568;48.104;11.782;2022-12-29T01:54:59;95198.18;;;4.53;41.42
48156;BME280;35568;48.104;11.782;2022-12-29T01:57:31;95199.52;;;4.22;41.38
48156;BME280;35568;48.104;11.782;2022-12-29T02:00:02;95199.14;;;4.18;41.42
48156;BME280;35568;48.104;11.782;2022-12-29T02:02:31;95197.29;;;4.35;41.56
48156;BME280;35568;48.104;11.782;2022-12-29T02:04:59;95191.81;;;4.24;41.54
48156;BME280;35568;48.104;11.782;2022-12-29T02:07:29;95190.40;;;3.99;42.29
48156;BME280;35568;48.104;11.782;2022-12-29T02:09:56;95188.26;;;4.22;41.58
48156;BME280;35568;48.104;11.782;2022-12-29T02:12:24;95183.87;;;4.19;41.41
48156;BME280;35568;48.104;11.782;2022-12-29T02:14:55;95183.68;;;4.03;41.29
48156;BME280;35568;48.104;11.782;2022-12-29T02:17:31;95180.71;;;3.84;41.85
48156;BME280;35568;48.104;11.782;2022-12-29T02:20:17;95185.63;;;3.90;41.53
48156;BME280;35568;48.104;11.782;2022-12-29T02:23:04;95184.82;;;3.60;42.16
48156;BME280;35568;48.104;11.782;2022-12-29T02:25:58;95187.11;;;3.40;42.53
48156;BME280;35568;48.104;11.782;2022-12-29T02:29:02;95188.63;;;3.62;42.49
48156;BME280;35568;48.104;11.782;2022-12-29T02:31:39;95190.92;;;3.72;41.70
48156;BME280;35568;48.104;11.782;2022-12-29T02:34:17;95192.07;;;3.63;41.78
48156;BME280;35568;48.104;11.782;2022-12-29T02:36:57;95189.29;;;3.64;42.06
48156;BME280;35568;48.104;11.782;2022-12-29T02:39:32;95191.19;;;4.06;41.97
48156;BME280;35568;48.104;11.782;2022-12-29T02:42:05;95193.22;;;3.51;42.20
48156;BME280;35568;48.104;11.782;2022-12-29T02:44:39;95193.16;;;3.61;42.15
48156;BME280;35568;48.104;11.782;2022-12-29T02:47:13;95192.99;;;3.52;42.55
48156;BME280;35568;48.104;11.782;2022-12-29T02:49:46;95188.29;;;3.65;42.44
48156;BME280;35568;48.104;11.782;2022-12-29T02:52:19;95185.69;;;3.92;42.52
48156;BME280;35568;48.104;11.782;2022-12-29T02:54:49;95182.78;;;3.79;42.79
48156;BME280;35568;48.104;11.782;2022-12-29T02:57:29;95184.35;;;3.86;42.05
48156;BME280;35568;48.104;11.782;2022-12-29T03:00:02;95188.98;;;3.79;42.30
48156;BME280;35568;48.104;11.782;2022-12-29T03:02:40;95187.35;;;3.76;42.18
48156;BME280;35568;48.104;11.782;2022-12-29T03:06:29;95190.99;;;3.81;42.01
48156;BME280;35568;48.104;11.782;2022-12-29T03:09:03;95177.80;;;3.71;42.59
48156;BME280;35568;48.104;11.782;2022-12-29T03:11:41;95180.10;;;3.73;42.30
48156;BME280;35568;48.104;11.782;2022-12-29T03:14:16;95177.73;;;3.78;42.13
48156;BME280;35568;48.104;11.782;2022-12-29T03:16:47;95177.87;;;3.61;42.62
48156;BME280;35568;48.104;11.782;2022-12-29T03:19:18;95175.25;;;3.80;42.42
48156;BME280;35568;48.104;11.782;2022-12-29T03:21:50;95172.00;;;3.99;42.35
48156;BME280;35568;48.104;11.782;2022-12-29T03:24:28;95169.29;;;3.95;41.93
48156;BME280;35568;48.104;11.782;2022-12-29T03:26:57;95164.48;;;4.03;42.16
48156;BME280;35568;48.104;11.782;2022-12-29T03:29:28;95162.14;;;3.93;42.30
48156;BME280;35568;48.104;11.782;2022-12-29T03:34:34;95160.70;;;4.52;42.17
48156;BME280;35568;48.104;11.782;2022-12-29T03:37:06;95159.07;;;4.26;41.54
48156;BME280;35568;48.104;11.782;2022-12-29T03:39:35;95153.93;;;3.99;41.61
48156;BME280;35568;48.104;11.782;2022-12-29T03:42:06;95156.13;;;4.49;42.03
48156;BME280;35568;48.104;11.782;2022-12-29T03:44:37;95152.07;;;4.40;41.07
48156;BME280;35568;48.104;11.782;2022-12-29T03:47:05;95153.04;;;4.28;40.84
48156;BME280;35568;48.104;11.782;2022-12-29T03:49:33;95147.93;;;4.35;40.72
48156;BME280;35568;48.104;11.782;2022-12-29T03:52:00;95144.39;;;4.96;41.09
48156;BME280;35568;48.104;11.782;2022-12-29T03:54:27;95143.95;;;5.03;40.87
48156;BME280;35568;48.104;11.782;2022-12-29T03:56:53;95141.88;;;4.65;40.77
48156;BME280;35568;48.104;11.782;2022-12-29T03:59:20;95140.39;;;4.91;40.67
48156;BME280;35568;48.104;11.782;2022-12-29T04:03:01;95145.79;;;4.95;39.27
48156;BME280;35568;48.104;11.782;2022-12-29T04:05:28;95144.17;;;4.96;39.57
48156;BME280;35568;48.104;11.782;2022-12-29T04:07:55;95144.77;;;5.02;39.48
48156;BME280;35568;48.104;11.782;2022-12-29T04:10:21;95145.53;;;4.89;39.93
48156;BME280;35568;48.104;11.782;2022-12-29T04:12:48;95146.45;;;4.78;39.91
48156;BME280;35568;48.104;11.782;2022-12-29T04:15:15;95151.04;;;5.00;40.15
48156;BME280;35568;48.104;11.782;2022-12-29T04:17:42;95152.54;;;4.55;40.28
48156;BME280;35568;48.104;11.782;2022-12-29T04:20:09;95148.37;;;4.55;40.40
48156;BME280;35568;48.104;11.782;2022-12-29T04:22:36;95149.81;;;4.68;40.07
48156;BME280;35568;48.104;11.782;2022-12-29T04:25:03;95146.05;;;4.89;40.21
48156;BME280;35568;48.104;11.782;2022-12-29T04:27:31;95148.26;;;4.66;40.85
48156;BME280;35568;48.104;11.782;2022-12-29T04:29:57;95141.52;;;4.63;40.73
48156;BME280;35568;48.104;11.782;2022-12-29T04:32:24;95149.46;;;5.02;40.10
48156;BME280;35568;48.104;11.782;2022-12-29T04:34:51;95149.32;;;4.86;40.51
48156;BME280;35568;48.104;11.782;2022-12-29T04:37:18;95146.00;;;5.04;40.38
48156;BME280;35568;48.104;11.782;2022-12-29T04:39:45;95146.03;;;5.15;39.82
48156;BME280;35568;48.104;11.782;2022-12-29T04:42:12;95148.06;;;5.18;39.93
48156;BME280;35568;48.104;11.782;2022-12-29T04:44:38;95148.77;;;5.35;40.11
48156;BME280;35568;48.104;11.782;2022-12-29T04:47:05;95150.11;;;5.46;39.68
48156;BME280;35568;48.104;11.782;2022-12-29T04:49:32;95143.60;;;5.33;39.76
48156;BME280;35568;48.104;11.782;2022-12-29T04:51:59;95137.54;;;5.39;40.25
48156;BME280;35568;48.104;11.782;2022-12-29T04:54:26;95135.32;;;5.25;40.23
48156;BME280;35568;48.104;11.782;2022-12-29T04:56:53;95139.19;;;5.23;39.26
48156;BME280;35568;48.104;11.782;2022-12-29T04:59:20;95126.91;;;5.45;39.18
48156;BME280;35568;48.104;11.782;2022-12-29T05:01:46;95126.13;;;5.51;39.27
48156;BME280;35568;48.104;11.782;2022-12-29T05:04:13;95121.94;;;5.73;39.07
48156;BME280;35568;48.104;11.782;2022-12-29T05:06:40;95122.73;;;5.80;39.16
48156;BME280;35568;48.104;11.782;2022-12-29T05:09:07;95124.18;;;5.96;38.55
48156;BME280;35568;48.104;11.782;2022-12-29T05:11:34;95125.46;;;6.16;38.70
48156;BME280;35568;48.104;11.782;2022-12-29T05:14:01;95129.24;;;6.16;38.58
48156;BME280;35568;48.104;11.782;2022-12-29T05:16:27;95129.54;;;5.96;39.01
48156;BME280;35568;48.104;11.782;2022-12-29T05:18:54;95130.98;;;5.95;38.56
48156;BME280;35568;48.104;11.782;2022-12-29T05:21:21;95130.79;;;5.94;38.73
48156;BME280;35568;48.104;11.782;2022-12-29T05:23:48;95130.45;;;6.16;38.88
48156;BME280;35568;48.104;11.782;2022-12-29T05:26:15;95127.50;;;6.03;38.84
48156;BME280;35568;48.104;11.782;2022-12-29T05:28:42;95134.80;;;6.08;38.76
48156;BME280;35568;48.104;11.782;2022-12-29T05:31:09;95132.14;;;6.13;38.63
48156;BME280;35568;48.104;11.782;2022-12-29T05:33:35;95128.96;;;6.18;38.24
48156;BME280;35568;48.104;11.782;2022-12-29T05:36:04;95130.86;;;6.20;38.66
48156;BME280;35568;48.104;11.782;2022-12-29T05:38:31;95129.10;;;5.92;38.72
48156;BME280;35568;48.104;11.782;2022-12-29T05:40:58;95130.67;;;6.14;38.85
48156;BME280;35568;48.104;11.782;2022-12-29T05:43:25;95130.91;;;6.20;38.72
48156;BME280;35568;48.104;11.782;2022-12-29T05:45:52;95138.28;;;6.15;38.53
48156;BME280;35568;48.104;11.782;2022-12-29T05:48:19;95137.28;;;6.19;38.56
48156;BME280;35568;48.104;11.782;2022-12-29T05:50:47;95135.38;;;6.55;38.33
48156;BME280;35568;48.104;11.782;2022-12-29T05:53:14;95134.53;;;6.26;38.51
48156;BME280;35568;48.104;11.782;2022-12-29T05:55:41;95135.03;;;6.50;38.43
48156;BME280;35568;48.104;11.782;2022-12-29T05:58:07;95133.50;;;6.31;37.65
48156;BME280;35568;48.104;11.782;2022-12-29T06:00:34;95131.38;;;6.30;38.20
48156;BME280;35568;48.104;11.782;2022-12-29T06:03:01;95128.75;;;6.47;38.52
48156;BME280;35568;48.104;11.782;2022-12-29T06:05:28;95124.18;;;6.36;38.45
48156;BME280;35568;48.104;11.782;2022-12-29T06:07:55;95125.35;;;5.85;38.74
48156;BME280;35568;48.104;11.782;2022-12-29T06:10:22;95122.64;;;6.09;38.45
48156;BME280;35568;48.104;11.782;2022-12-29T06:12:48;95117.74;;;6.35;38.98
48156;BME280;35568;48.104;11.782;2022-12-29T06:15:16;95119.89;;;6.16;38.43
48156;BME280;35568;48.104;11.782;2022-12-29T06:17:43;95123.70;;;6.67;38.55
48156;BME280;35568;48.104;11.782;2022-12-29T06:20:10;95119.94;;;6.35;38.71
48156;BME280;35568;48.104;11.782;2022-12-29T06:22:37;95125.25;;;6.55;38.75
48156;BME280;35568;48.104;11.782;2022-12-29T06:25:05;95126.19;;;6.09;38.79
48156;BME280;35568;48.104;11.782;2022-12-29T06:27:32;95124.72;;;6.57;38.51
48156;BME280;35568;48.104;11.782;2022-12-29T06:29:59;95127.44;;;6.23;38.76
48156;BME280;35568;48.104;11.782;2022-12-29T06:32:26;95129.19;;;6.13;38.39
48156;BME280;35568;48.104;11.782;2022-12-29T06:34:53;95124.28;;;6.17;38.76
48156;BME280;35568;48.104;11.782;2022-12-29T06:37:20;95125.44;;;6.20;38.63
48156;BME280;35568;48.104;11.782;2022-12-29T06:39:46;95129.79;;;6.39;39.26
48156;BME280;35568;48.104;11.782;2022-12-29T06:42:13;95132.11;;;6.66;38.85
48156;BME280;35568;48.104;11.782;2022-12-29T06:44:40;95132.42;;;6.39;38.91
48156;BME280;35568;48.104;11.782;2022-12-29T06:47:07;95132.13;;;6.41;38.70
48156;BME280;35568;48.104;11.782;2022-12-29T06:49:34;95133.37;;;6.54;38.46
48156;BME280;35568;48.104;11.782;2022-12-29T06:52:01;95135.61;;;6.41;38.50
48156;BME280;35568;48.104;11.782;2022-12-29T06:54:28;95138.94;;;6.22;39.51
48156;BME280;35568;48.104;11.782;2022-12-29T06:56:54;95141.35;;;6.04;38.87
48156;BME280;35568;48.104;11.782;2022-12-29T06:59:21;95140.75;;;6.10;39.16
48156;BME280;35568;48.104;11.782;2022-12-29T07:01:49;95140.51;;;6.02;39.20
48156;BME280;35568;48.104;11.782;2022-12-29T07:04:16;95137.94;;;6.10;39.58
48156;BME280;35568;48.104;11.782;2022-12-29T07:06:43;95140.38;;;5.95;39.10
48156;BME280;35568;48.104;11.782;2022-12-29T07:09:10;95139.37;;;6.45;38.87
48156;BME280;35568;48.104;11.782;2022-12-29T07:11:37;95150.25;;;6.64;38.82
48156;BME280;35568;48.104;11.782;2022-12-29T07:14:04;95161.44;;;6.63;38.39
48156;BME280;35568;48.104;11.782;2022-12-29T07:16:31;95170.87;;;6.39;38.48
48156;BME280;35568;48.104;11.782;2022-12-29T07:18:58;95163.53;;;6.07;39.08
48156;BME280;35568;48.104;11.782;2022-12-29T07:21:25;95158.34;;;5.88;40.02
48156;BME280;35568;48.104;11.782;2022-12-29T07:23:53;95159.12;;;5.81;40.39
48156;BME280;35568;48.104;11.782;2022-12-29T07:26:20;95169.17;;;5.95;38.95
48156;BME280;35568;48.104;11.782;2022-12-29T07:28:47;95173.90;;;5.96;39.45
48156;BME280;35568;48.104;11.782;2022-12-29T07:31:15;95175.01;;;5.86;39.55
48156;BME280;35568;48.104;11.782;2022-12-29T07:33:42;95175.53;;;6.07;39.36
48156;BME280;35568;48.104;11.782;2022-12-29T07:36:09;95178.97;;;5.92;39.23
48156;BME280;35568;48.104;11.782;2022-12-29T07:38:36;95187.27;;;6.20;39.37
48156;BME280;35568;48.104;11.782;2022-12-29T07:41:03;95192.08;;;6.33;38.38
48156;BME280;35568;48.104;11.782;2022-12-29T07:43:29;95188.14;;;6.43;39.13
48156;BME280;35568;48.104;11.782;2022-12-29T07:45:56;95186.25;;;6.34;38.43
48156;BME280;35568;48.104;11.782;2022-12-29T07:48:23;95191.91;;;6.88;38.18
48156;BME280;35568;48.104;11.782;2022-12-29T07:50:50;95195.12;;;7.00;37.52
48156;BME280;35568;48.104;11.782;2022-12-29T07:53:17;95199.35;;;6.85;37.89
48156;BME280;35568;48.104;11.782;2022-12-29T07:55:44;95193.80;;;6.84;37.71
48156;BME280;35568;48.104;11.782;2022-12-29T07:58:11;95198.74;;;6.83;37.41
48156;BME280;35568;48.104;11.782;2022-12-29T08:00:38;95209.07;;;6.88;37.88
48156;BME280;35568;48.104;11.782;2022-12-29T08:03:05;95191.91;;;6.84;38.63
48156;BME280;35568;48.104;11.782;2022-12-29T08:05:32;95188.92;;;6.76;38.79
48156;BME280;35568;48.104;11.782;2022-12-29T08:08:00;95183.03;;;6.72;38.90
48156;BME280;35568;48.104;11.782;2022-12-29T08:10:27;95185.40;;;6.42;38.43
48156;BME280;35568;48.104;11.782;2022-12-29T08:12:53;95185.48;;;7.02;38.29
48156;BME280;35568;48.104;11.782;2022-12-29T08:15:20;95189.74;;;6.67;37.87
48156;BME280;35568;48.104;11.782;2022-12-29T08:17:47;95192.40;;;6.77;37.22
48156;BME280;35568;48.104;11.782;2022-12-29T08:20:14;95202.48;;;6.73;37.19
48156;BME280;35568;48.104;11.782;2022-12-29T08:22:41;95201.62;;;6.88;37.09
48156;BME280;35568;48.104;11.782;2022-12-29T08:25:08;95201.69;;;7.17;37.51
48156;BME280;35568;48.104;11.782;2022-12-29T08:27:35;95206.15;;;7.02;37.43
48156;BME280;35568;48.104;11.782;2022-12-29T08:30:04;95209.19;;;6.86;37.68
48156;BME280;35568;48.104;11.782;2022-12-29T08:32:32;95201.36;;;7.06;37.56
48156;BME280;35568;48.104;11.782;2022-12-29T08:34:59;95202.03;;;7.35;37.12
48156;BME280;35568;48.104;11.782;2022-12-29T08:37:26;95204.85;;;7.69;36.85
48156;BME280;35568;48.104;11.782;2022-12-29T08:39:53;95209.41;;;7.98;36.64
48156;BME280;35568;48.104;11.782;2022-12-29T08:42:20;95210.11;;;8.15;36.42
48156;BME280;35568;48.104;11.782;2022-12-29T08:44:47;95207.32;;;7.67;36.47
48156;BME280;35568;48.104;11.782;2022-12-29T08:47:13;95206.75;;;7.93;36.12
48156;BME280;35568;48.104;11.782;2022-12-29T08:49:40;95204.01;;;8.36;35.71
48156;BME280;35568;48.104;11.782;2022-12-29T08:52:07;95201.52;;;8.42;35.89
48156;BME280;35568;48.104;11.782;2022-12-29T08:54:35;95191.71;;;8.66;35.80
48156;BME280;35568;48.104;11.782;2022-12-29T08:57:02;95197.62;;;8.63;35.43
48156;BME280;35568;48.104;11.782;2022-12-29T08:59:29;95198.99;;;8.54;35.32
48156;BME280;35568;48.104;11.782;2022-12-29T09:01:55;95197.82;;;8.21;35.09
48156;BME280;35568;48.104;11.782;2022-12-29T09:04:22;95198.61;;;8.45;35.33
48156;BME280;35568;48.104;11.782;2022-12-29T09:06:49;95204.27;;;8.36;34.83
48156;BME280;35568;48.104;11.782;2022-12-29T09:09:17;95202.73;;;8.62;34.61
48156;BME280;35568;48.104;11.782;2022-12-29T09:11:44;95204.43;;;8.65;35.31
48156;BME280;35568;48.104;11.782;2022-12-29T09:14:11;95203.61;;;8.55;35.16
48156;BME280;35568;48.104;11.782;2022-12-29T09:16:39;95203.12;;;8.60;34.72
48156;BME280;35568;48.104;11.782;2022-12-29T09:19:06;95200.91;;;8.80;34.85
48156;BME280;35568;48.104;11.782;2022-12-29T09:21:33;95207.06;;;8.67;34.36
48156;BME280;35568;48.104;11.782;2022-12-29T09:23:59;95207.66;;;8.84;34.81
48156;BME280;35568;48.104;11.782;2022-12-29T09:26:26;95208.47;;;8.49;34.44
48156;BME280;35568;48.104;11.782;2022-12-29T09:28:53;95209.32;;;9.01;33.66
48156;BME280;35568;48.104;11.782;2022-12-29T09:31:20;95207.74;;;8.72;34.15
48156;BME280;35568;48.104;11.782;2022-12-29T09:33:47;95212.25;;;8.90;34.22
48156;BME280;35568;48.104;11.782;2022-12-29T09:36:14;95213.32;;;8.89;34.38
48156;BME280;35568;48.104;11.782;2022-12-29T09:38:40;95211.47;;;8.96;34.81
48156;BME280;35568;48.104;11.782;2022-12-29T09:41:13;95213.63;;;9.01;33.80
48156;BME280;35568;48.104;11.782;2022-12-29T09:43:53;95211.97;;;8.99;34.39
48156;BME280;35568;48.104;11.782;2022-12-29T09:46:25;95214.83;;;8.97;33.65
48156;BME280;35568;48.104;11.782;2022-12-29T09:49:02;95205.37;;;8.92;33.86
48156;BME280;35568;48.104;11.782;2022-12-29T09:51:36;95201.02;;;8.66;33.75
48156;BME280;35568;48.104;11.782;2022-12-29T09:54:27;95196.81;;;9.01;34.61
48156;BME280;35568;48.104;11.782;2022-12-29T09:56:58;95198.38;;;9.49;34.01
48156;BME280;35568;48.104;11.782;2022-12-29T09:59:36;95196.64;;;9.47;32.83
48156;BME280;35568;48.104;11.782;2022-12-29T10:02:12;95190.74;;;10.04;32.65
48156;BME280;35568;48.104;11.782;2022-12-29T10:04:40;95191.04;;;10.41;32.14
48156;BME280;35568;48.104;11.782;2022-12-29T10:07:14;95182.02;;;10.48;31.30
48156;BME280;35568;48.104;11.782;2022-12-29T10:09:48;95186.39;;;10.05;30.95
48156;BME280;35568;48.104;11.782;2022-12-29T10:12:25;95184.90;;;10.46;31.17
48156;BME280;35568;48.104;11.782;2022-12-29T10:15:03;95184.97;;;10.66;30.83
48156;BME280;35568;48.104;11.782;2022-12-29T10:17:38;95183.75;;;10.60;30.65
48156;BME280;35568;48.104;11.782;2022-12-29T10:20:22;95177.00;;;10.56;29.81
48156;BME280;35568;48.104;11.782;2022-12-29T10:23:03;95171.89;;;10.64;29.41
48156;BME280;35568;48.104;11.782;2022-12-29T10:25:35;95172.56;;;10.91;29.69
48156;BME280;35568;48.104;11.782;2022-12-29T10:28:13;95170.55;;;10.76;29.70
48156;BME280;35568;48.104;11.782;2022-12-29T10:30:43;95165.61;;;10.79;29.08
48156;BME280;35568;48.104;11.782;2022-12-29T10:33:17;95164.91;;;11.01;29.22
48156;BME280;35568;48.104;11.782;2022-12-29T10:35:46;95164.67;;;10.95;29.11
48156;BME280;35568;48.104;11.782;2022-12-29T10:38:22;95162.00;;;11.16;29.72
48156;BME280;35568;48.104;11.782;2022-12-29T10:40:54;95173.06;;;11.26;28.96
48156;BME280;35568;48.104;11.782;2022-12-29T10:43:26;95174.70;;;11.40;28.99
48156;BME280;35568;48.104;11.782;2022-12-29T10:45:55;95172.62;;;11.53;29.42
48156;BME280;35568;48.104;11.782;2022-12-29T10:48:25;95168.04;;;11.46;29.13
48156;BME280;35568;48.104;11.782;2022-12-29T10:50:57;95166.03;;;11.17;29.22
48156;BME280;35568;48.104;11.782;2022-12-29T10:53:27;95162.36;;;11.93;28.97
48156;BME280;35568;48.104;11.782;2022-12-29T10:55:56;95150.45;;;12.26;29.08
48156;BME280;35568;48.104;11.782;2022-12-29T10:58:26;95144.19;;;12.10;28.86
48156;BME280;35568;48.104;11.782;2022-12-29T11:00:54;95141.70;;;12.94;28.76
48156;BME280;35568;48.104;11.782;2022-12-29T11:03:39;95142.17;;;12.43;27.56
48156;BME280;35568;48.104;11.782;2022-12-29T11:06:09;95130.85;;;12.71;27.87
48156;BME280;35568;48.104;11.782;2022-12-29T11:08:44;95124.66;;;12.69;27.52
48156;BME280;35568;48.104;11.782;2022-12-29T11:11:22;95121.61;;;13.48;27.43
48156;BME280;35568;48.104;11.782;2022-12-29T11:13:54;95130.19;;;13.74;26.37
48156;BME280;35568;48.104;11.782;2022-12-29T11:16:27;95133.85;;;13.78;26.01
48156;BME280;35568;48.104;11.782;2022-12-29T11:18:54;95128.62;;;13.89;26.53
48156;BME280;35568;48.104;11.782;2022-12-29T11:21:32;95125.75;;;14.08;26.70
48156;BME280;35568;48.104;11.782;2022-12-29T11:24:01;95122.66;;;14.55;25.88
48156;BME280;35568;48.104;11.782;2022-12-29T11:26:30;95121.17;;;14.49;25.78
48156;BME280;35568;48.104;11.782;2022-12-29T11:29:17;95124.99;;;14.89;25.16
48156;BME280;35568;48.104;11.782;2022-12-29T11:31:48;95121.86;;;14.79;24.06
48156;BME280;35568;48.104;11.782;2022-12-29T11:34:18;95122.45;;;14.72;23.64
48156;BME280;35568;48.104;11.782;2022-12-29T11:36:47;95115.49;;;14.91;24.72
48156;BME280;35568;48.104;11.782;2022-12-29T11:39:28;95116.30;;;14.75;24.37
48156;BME280;35568;48.104;11.782;2022-12-29T11:41:56;95120.39;;;14.86;24.42
48156;BME280;35568;48.104;11.782;2022-12-29T11:44:24;95115.07;;;14.55;23.98
48156;BME280;35568;48.104;11.782;2022-12-29T11:46:52;95107.07;;;14.92;24.29
48156;BME280;35568;48.104;11.782;2022-12-29T11:49:20;95110.08;;;14.65;23.67
48156;BME280;35568;48.104;11.782;2022-12-29T11:51:50;95101.00;;;14.99;24.72
48156;BME280;35568;48.104;11.782;2022-12-29T11:54:21;95098.88;;;15.70;24.05
48156;BME280;35568;48.104;11.782;2022-12-29T11:56:50;95093.91;;;15.59;23.56
48156;BME280;35568;48.104;11.782;2022-12-29T11:59:51;95095.85;;;16.20;22.52
48156;BME280;35568;48.104;11.782;2022-12-29T12:02:32;95092.79;;;16.32;22.08
48156;BME280;35568;48.104;11.782;2022-12-29T12:05:09;95086.99;;;15.99;21.88
48156;BME280;35568;48.104;11.782;2022-12-29T12:07:41;95087.75;;;15.70;22.10
48156;BME280;35568;48.104;11.782;2022-12-29T12:10:20;95090.99;;;15.69;22.10
48156;BME280;35568;48.104;11.782;2022-12-29T12:12:56;95088.03;;;15.17;21.80
48156;BME280;35568;48.104;11.782;2022-12-29T12:15:29;95092.68;;;15.18;22.46
48156;BME280;35568;48.104;11.782;2022-12-29T12:18:02;95098.62;;;14.69;22.78
48156;BME280;35568;48.104;11.782;2022-12-29T12:20:38;95094.00;;;14.21;22.88
48156;BME280;35568;48.104;11.782;2022-12-29T12:23:18;95091.34;;;14.36;23.00
48156;BME280;35568;48.104;11.782;2022-12-29T12:25:56;95085.87;;;14.50;23.11
48156;BME280;35568;48.104;11.782;2022-12-29T12:28:32;95079.74;;;14.46;22.43
48156;BME280;35568;48.104;11.782;2022-12-29T12:31:01;95075.60;;;14.08;23.25
48156;BME280;35568;48.104;11.782;2022-12-29T12:33:32;95072.99;;;14.10;23.69
48156;BME280;35568;48.104;11.782;2022-12-29T12:36:13;95074.13;;;14.37;23.26
48156;BME280;35568;48.104;11.782;2022-12-29T12:38:47;95072.57;;;14.42;23.36
48156;BME280;35568;48.104;11.782;2022-12-29T12:41:25;95064.92;;;14.47;22.84
48156;BME280;35568;48.104;11.782;2022-12-29T12:44:01;95063.90;;;14.69;23.28
48156;BME280;35568;48.104;11.782;2022-12-29T12:46:44;95056.72;;;14.78;22.97
48156;BME280;35568;48.104;11.782;2022-12-29T12:49:34;95060.50;;;14.18;23.30
48156;BME280;35568;48.104;11.782;2022-12-29T12:52:10;95063.12;;;14.32;23.37
48156;BME280;35568;48.104;11.782;2022-12-29T12:54:54;95065.38;;;14.19;23.50
48156;BME280;35568;48.104;11.782;2022-12-29T12:57:35;95061.02;;;14.57;23.25
48156;BME280;35568;48.104;11.782;2022-12-29T13:00:11;95065.39;;;14.45;23.27
48156;BME280;35568;48.104;11.782;2022-12-29T13:02:46;95069.18;;;14.27;23.34
48156;BME280;35568;48.104;11.782;2022-12-29T13:05:26;95060.61;;;14.47;23.39
48156;BME280;35568;48.104;11.782;2022-12-29T13:08:06;95067.50;;;14.75;23.64
48156;BME280;35568;48.104;11.782;2022-12-29T13:10:42;95061.00;;;13.95;23.67
48156;BME280;35568;48.104;11.782;2022-12-29T13:13:37;95058.17;;;14.54;23.85
48156;BME280;35568;48.104;11.782;2022-12-29T13:16:15;95060.18;;;13.90;24.25
48156;BME280;35568;48.104;11.782;2022-12-29T13:18:52;95057.99;;;14.12;24.29